Egmondgracht — PDWG — position and weather

sailwx.info

Track history (hours):
 
Tides and Currents Weather Stations Pressure Air Temp Water Temp Dewpoint Dewpoint Depression Visibility Wind Speed Wind Dir Waves Ship Positions

Egmondgracht

Last reported at 2018-Apr-07 00:16 UTC. Time now 2018-Apr-23 11:48 UTC.
Position N 41°48' E 029°20'.
Warning: this ship's position is 16 days out of date.

Length 136 m; beam 19 m; draft 9 m.

Type: Cargo ship. MMSI: 245716000.

Date/timePositionNaut miles runAvg speedWind from/ knotsBaromVisibWave heightAir tempDewpointWater temp
2018-Apr-07 00:16N 41°48' E 029°20'0 0.8
2018-Apr-06 23:58N 41°48' E 029°20'5 0.7
2018-Apr-06 16:20N 41°53' E 029°23'22 3.1
2018-Apr-06 09:11N 41°44' E 028°56'0 0.7
2018-Apr-06 08:44N 41°44' E 028°56'1 0.7
2018-Apr-06 07:16N 41°45' E 028°55'2 0.6
2018-Apr-06 04:28N 41°46' E 028°54'0 0.5
2018-Apr-06 03:40N 41°47' E 028°54'0 0.5
2018-Apr-06 03:16N 41°47' E 028°54'0 0.5
2018-Apr-06 02:58N 41°47' E 028°54'0 0.6
2018-Apr-06 02:16N 41°47' E 028°54'0 0.6
2018-Apr-06 01:58N 41°48' E 028°54'0 0.7
2018-Apr-06 01:22N 41°48' E 028°54'0 0.7
2018-Apr-06 00:52N 41°48' E 028°54'0 0.7
2018-Apr-06 00:28N 41°49' E 028°54'0 0.7
2018-Apr-06 00:00N 41°49' E 028°54'0 0.7
2018-Apr-05 23:30N 41°49' E 028°54'0 0.6
2018-Apr-05 23:00N 41°50' E 028°54'0 0.7
2018-Apr-05 22:30N 41°50' E 028°54'0 0.8
2018-Apr-05 22:00N 41°50' E 028°53'2 4.4
2018-Apr-05 21:30N 41°51' E 028°56'510.8
2018-Apr-05 21:00N 41°55' E 029°00'4 9.0
2018-Apr-05 20:30N 41°59' E 029°04'5 9.0
2018-Apr-05 20:00N 42°03' E 029°07'3 7.0
2018-Apr-05 19:30N 42°04' E 029°11'4 9.0
2018-Apr-05 19:00N 42°03' E 029°17'5 9.1
2018-Apr-05 18:30N 42°01' E 029°22'5 9.1
2018-Apr-05 18:00N 41°60' E 029°28'5 9.2
2018-Apr-05 17:30N 41°57' E 029°33'5 9.5
2018-Apr-05 17:00N 41°57' E 029°40'510.8
2018-Apr-05 16:30N 41°58' E 029°47'510.8
2018-Apr-05 16:00N 41°58' E 029°54'510.9
2018-Apr-05 15:30N 41°59' E 030°01'611.9
2018-Apr-05 15:00N 42°00' E 030°09'612.9
2018-Apr-05 14:30N 42°01' E 030°18'612.8
2018-Apr-05 14:00N 42°02' E 030°27'612.7
2018-Apr-05 13:30N 42°03' E 030°35'712.8
2018-Apr-05 12:59N 42°04' E 030°44'612.5
2018-Apr-05 12:29N 42°04' E 030°52'612.5
2018-Apr-05 11:59N 42°06' E 031°01'812.2
2018-Apr-05 11:22N 42°08' E 031°10'512.3
2018-Apr-05 10:59N 42°08' E 031°17'1012.7
2018-Apr-05 10:13N 42°09' E 031°30'312.7
2018-Apr-05 10:00N 42°10' E 031°33'712.9
2018-Apr-05 09:29N 42°11' E 031°42'612.8
2018-Apr-05 09:00N 42°12' E 031°50'612.7
2018-Apr-05 08:30N 42°13' E 031°59'612.6
2018-Apr-05 07:59N 42°13' E 032°08'612.4
2018-Apr-05 07:30N 42°14' E 032°16'612.4
2018-Apr-05 07:00N 42°15' E 032°24'612.5
2018-Apr-05 06:30N 42°16' E 032°32'612.4
2018-Apr-05 06:00N 42°17' E 032°41'612.3
2018-Apr-05 05:30N 42°17' E 032°49'612.1
2018-Apr-05 05:00N 42°18' E 032°57'612.5
2018-Apr-05 04:30N 42°15' E 033°04'612.0
2018-Apr-05 04:00N 42°15' E 033°12'612.4
2018-Apr-05 03:30N 42°15' E 033°21'612.6
2018-Apr-05 03:00N 42°16' E 033°29'612.6
2018-Apr-05 02:30N 42°15' E 033°38'612.8
2018-Apr-05 02:00N 42°15' E 033°46'612.9
2018-Apr-05 01:30N 42°15' E 033°55'612.8
2018-Apr-05 01:00N 42°16' E 034°04'612.9
2018-Apr-05 00:31N 42°15' E 034°12'612.7
2018-Apr-05 00:00N 42°15' E 034°21'712.9
2018-Apr-04 23:28N 42°15' E 034°31'  
Track history (hours):
 
Tides and Currents Weather Stations Pressure Air Temp Water Temp Dewpoint Dewpoint Depression Visibility Wind Speed Wind Dir Waves Ship Positions

Egmondgracht

Last reported at 2018-Apr-07 00:16 UTC. Time now 2018-Apr-23 11:48 UTC.
Position N 41°48' E 029°20'.
Warning: this ship's position is 16 days out of date.

Length 136 m; beam 19 m; draft 9 m.

Type: Cargo ship. MMSI: 245716000.

Date/timePositionNaut miles runAvg speedWind from/ knotsBaromVisibWave heightAir tempDewpointWater temp
2018-Apr-07 00:16N 41°48' E 029°20'0 0.8
2018-Apr-06 23:58N 41°48' E 029°20'5 0.7
2018-Apr-06 16:20N 41°53' E 029°23'22 3.1
2018-Apr-06 09:11N 41°44' E 028°56'0 0.7
2018-Apr-06 08:44N 41°44' E 028°56'1 0.7
2018-Apr-06 07:16N 41°45' E 028°55'2 0.6
2018-Apr-06 04:28N 41°46' E 028°54'0 0.5
2018-Apr-06 03:40N 41°47' E 028°54'0 0.5
2018-Apr-06 03:16N 41°47' E 028°54'0 0.5
2018-Apr-06 02:58N 41°47' E 028°54'0 0.6
2018-Apr-06 02:16N 41°47' E 028°54'0 0.6
2018-Apr-06 01:58N 41°48' E 028°54'0 0.7
2018-Apr-06 01:22N 41°48' E 028°54'0 0.7
2018-Apr-06 00:52N 41°48' E 028°54'0 0.7
2018-Apr-06 00:28N 41°49' E 028°54'0 0.7
2018-Apr-06 00:00N 41°49' E 028°54'0 0.7
2018-Apr-05 23:30N 41°49' E 028°54'0 0.6
2018-Apr-05 23:00N 41°50' E 028°54'0 0.7
2018-Apr-05 22:30N 41°50' E 028°54'0 0.8
2018-Apr-05 22:00N 41°50' E 028°53'2 4.4
2018-Apr-05 21:30N 41°51' E 028°56'510.8
2018-Apr-05 21:00N 41°55' E 029°00'4 9.0
2018-Apr-05 20:30N 41°59' E 029°04'5 9.0
2018-Apr-05 20:00N 42°03' E 029°07'3 7.0
2018-Apr-05 19:30N 42°04' E 029°11'4 9.0
2018-Apr-05 19:00N 42°03' E 029°17'5 9.1
2018-Apr-05 18:30N 42°01' E 029°22'5 9.1
2018-Apr-05 18:00N 41°60' E 029°28'5 9.2
2018-Apr-05 17:30N 41°57' E 029°33'5 9.5
2018-Apr-05 17:00N 41°57' E 029°40'510.8
2018-Apr-05 16:30N 41°58' E 029°47'510.8
2018-Apr-05 16:00N 41°58' E 029°54'510.9
2018-Apr-05 15:30N 41°59' E 030°01'611.9
2018-Apr-05 15:00N 42°00' E 030°09'612.9
2018-Apr-05 14:30N 42°01' E 030°18'612.8
2018-Apr-05 14:00N 42°02' E 030°27'612.7
2018-Apr-05 13:30N 42°03' E 030°35'712.8
2018-Apr-05 12:59N 42°04' E 030°44'612.5
2018-Apr-05 12:29N 42°04' E 030°52'612.5
2018-Apr-05 11:59N 42°06' E 031°01'812.2
2018-Apr-05 11:22N 42°08' E 031°10'512.3
2018-Apr-05 10:59N 42°08' E 031°17'1012.7
2018-Apr-05 10:13N 42°09' E 031°30'312.7
2018-Apr-05 10:00N 42°10' E 031°33'712.9
2018-Apr-05 09:29N 42°11' E 031°42'612.8
2018-Apr-05 09:00N 42°12' E 031°50'612.7
2018-Apr-05 08:30N 42°13' E 031°59'612.6
2018-Apr-05 07:59N 42°13' E 032°08'612.4
2018-Apr-05 07:30N 42°14' E 032°16'612.4
2018-Apr-05 07:00N 42°15' E 032°24'612.5
2018-Apr-05 06:30N 42°16' E 032°32'612.4
2018-Apr-05 06:00N 42°17' E 032°41'612.3
2018-Apr-05 05:30N 42°17' E 032°49'612.1
2018-Apr-05 05:00N 42°18' E 032°57'612.5
2018-Apr-05 04:30N 42°15' E 033°04'612.0
2018-Apr-05 04:00N 42°15' E 033°12'612.4
2018-Apr-05 03:30N 42°15' E 033°21'612.6
2018-Apr-05 03:00N 42°16' E 033°29'612.6
2018-Apr-05 02:30N 42°15' E 033°38'612.8
2018-Apr-05 02:00N 42°15' E 033°46'612.9
2018-Apr-05 01:30N 42°15' E 033°55'612.8
2018-Apr-05 01:00N 42°16' E 034°04'612.9
2018-Apr-05 00:31N 42°15' E 034°12'612.7
2018-Apr-05 00:00N 42°15' E 034°21'712.9
2018-Apr-04 23:28N 42°15' E 034°31'  

Dump ship's entire track history